createdAt,value
2017-11-29T00:00:43.402Z,4.50
2017-11-29T00:03:10.866Z,4.50
2017-11-29T00:05:38.314Z,4.50
2017-11-29T00:08:05.788Z,4.40
2017-11-29T00:10:33.234Z,4.30
2017-11-29T00:13:00.679Z,4.40
2017-11-29T00:15:28.127Z,4.30
2017-11-29T00:17:55.572Z,4.30
2017-11-29T00:20:23.075Z,4.20
2017-11-29T00:22:50.510Z,4.20
2017-11-29T00:25:17.962Z,4.30
2017-11-29T00:27:45.407Z,4.20
2017-11-29T00:30:12.859Z,4.20
2017-11-29T00:32:40.357Z,4.20
2017-11-29T00:35:07.810Z,4.20
2017-11-29T00:37:35.254Z,4.30
2017-11-29T00:40:02.708Z,4.40
2017-11-29T00:42:30.915Z,4.40
2017-11-29T00:44:58.374Z,4.40
2017-11-29T00:47:25.827Z,4.50
2017-11-29T00:49:53.270Z,4.60
2017-11-29T00:52:20.711Z,4.60
2017-11-29T00:54:48.162Z,4.40
2017-11-29T00:57:15.612Z,4.30
2017-11-29T00:59:43.066Z,4.20
2017-11-29T01:02:10.510Z,4.20
2017-11-29T01:04:37.967Z,4.20
2017-11-29T01:07:05.414Z,4.30
2017-11-29T01:09:32.858Z,4.30
2017-11-29T01:12:01.098Z,4.20
2017-11-29T01:14:28.547Z,4.20
2017-11-29T01:16:56.010Z,4.10
2017-11-29T01:19:23.475Z,4.00
2017-11-29T01:21:50.917Z,3.80
2017-11-29T01:24:18.362Z,3.90
2017-11-29T01:26:45.835Z,3.80
2017-11-29T01:29:13.278Z,3.50
2017-11-29T01:31:40.730Z,3.40
2017-11-29T01:34:08.178Z,3.30
2017-11-29T01:36:35.663Z,3.30
2017-11-29T01:39:03.106Z,3.10
2017-11-29T01:41:30.586Z,3.00
2017-11-29T01:43:58.029Z,2.90
2017-11-29T01:46:25.479Z,2.70
2017-11-29T01:48:52.932Z,2.50
2017-11-29T01:51:20.387Z,2.50
2017-11-29T01:53:47.835Z,2.60
2017-11-29T01:56:15.291Z,2.60
2017-11-29T01:58:42.747Z,2.60
2017-11-29T02:01:10.239Z,2.70
2017-11-29T02:03:37.688Z,2.80
2017-11-29T02:06:16.890Z,2.80
2017-11-29T02:08:44.346Z,2.70
2017-11-29T02:11:11.800Z,2.70
2017-11-29T02:13:39.255Z,2.70
2017-11-29T02:16:06.716Z,2.70
2017-11-29T02:18:34.170Z,2.70
2017-11-29T02:21:01.625Z,2.80
2017-11-29T02:23:29.119Z,2.80
2017-11-29T02:25:56.572Z,2.80
2017-11-29T02:28:24.130Z,2.80
2017-11-29T02:30:51.593Z,2.80
2017-11-29T02:33:19.038Z,2.80
2017-11-29T02:35:46.510Z,2.70
2017-11-29T02:38:13.959Z,2.70
2017-11-29T02:40:53.400Z,2.60
2017-11-29T02:43:20.859Z,2.60
2017-11-29T02:45:48.311Z,2.60
2017-11-29T02:48:15.874Z,2.60
2017-11-29T02:50:43.324Z,2.60
2017-11-29T02:53:10.883Z,2.70
2017-11-29T02:55:38.326Z,2.70
2017-11-29T02:58:05.782Z,3.10
2017-11-29T03:00:33.255Z,3.30
2017-11-29T03:03:00.709Z,3.40
2017-11-29T03:05:28.156Z,3.30
2017-11-29T03:07:55.611Z,3.30
2017-11-29T03:10:23.079Z,3.30
2017-11-29T03:12:50.640Z,3.40
2017-11-29T03:15:18.087Z,3.30
2017-11-29T03:17:45.551Z,3.30
2017-11-29T03:20:12.999Z,3.10
2017-11-29T03:22:40.540Z,3.00
2017-11-29T03:25:07.975Z,2.90
2017-11-29T03:27:36.273Z,3.00
2017-11-29T03:30:03.704Z,3.00
2017-11-29T03:32:31.926Z,2.90
2017-11-29T03:34:59.385Z,2.90
2017-11-29T03:37:26.827Z,3.00
2017-11-29T03:39:54.299Z,3.00
2017-11-29T03:42:21.752Z,3.00
2017-11-29T03:44:49.196Z,3.00
2017-11-29T03:47:16.638Z,2.90
2017-11-29T03:49:44.084Z,2.80
2017-11-29T03:52:11.556Z,2.60
2017-11-29T03:54:38.994Z,2.50
2017-11-29T03:57:06.434Z,2.50
2017-11-29T03:59:34.673Z,2.50
2017-11-29T04:02:02.114Z,2.50
2017-11-29T04:04:29.566Z,2.40
2017-11-29T04:06:57.015Z,2.40
2017-11-29T04:09:24.471Z,2.30
2017-11-29T04:11:51.961Z,2.30
2017-11-29T04:14:19.411Z,2.30
2017-11-29T04:16:46.860Z,2.30
2017-11-29T04:19:14.313Z,2.30
2017-11-29T04:21:41.769Z,2.50
2017-11-29T04:24:09.214Z,2.40
2017-11-29T04:26:36.697Z,2.40
2017-11-29T04:29:04.249Z,2.40
2017-11-29T04:31:32.675Z,2.50
2017-11-29T04:34:00.910Z,2.70
2017-11-29T04:36:28.362Z,2.70
2017-11-29T04:38:55.924Z,2.60
2017-11-29T04:41:23.365Z,2.40
2017-11-29T04:43:50.816Z,2.30
2017-11-29T04:46:18.268Z,2.30
2017-11-29T04:48:45.711Z,2.20
2017-11-29T04:51:13.150Z,1.90
2017-11-29T04:53:41.379Z,1.70
2017-11-29T04:56:08.838Z,1.70
2017-11-29T04:58:36.288Z,1.80
2017-11-29T05:01:03.727Z,1.80
2017-11-29T05:03:31.194Z,2.00
2017-11-29T05:05:58.636Z,2.10
2017-11-29T05:08:26.136Z,2.20
2017-11-29T05:10:53.588Z,2.40
2017-11-29T05:13:22.069Z,2.50
2017-11-29T05:15:49.515Z,2.50
2017-11-29T05:18:16.954Z,2.50
2017-11-29T05:20:44.424Z,2.60
2017-11-29T05:23:11.872Z,2.80
2017-11-29T05:25:39.319Z,2.80
2017-11-29T05:28:06.777Z,3.00
2017-11-29T05:30:34.229Z,3.00
2017-11-29T05:33:01.679Z,2.90
2017-11-29T05:35:29.174Z,2.80
2017-11-29T05:37:56.614Z,2.90
2017-11-29T05:40:24.070Z,2.90
2017-11-29T05:42:51.516Z,2.90
2017-11-29T05:45:18.975Z,3.20
2017-11-29T05:47:46.430Z,3.10
2017-11-29T05:50:13.878Z,3.00
2017-11-29T05:52:41.328Z,3.00
2017-11-29T05:55:08.825Z,3.00
2017-11-29T05:57:36.270Z,3.00
2017-11-29T06:00:03.736Z,3.30
2017-11-29T06:02:31.188Z,3.40
2017-11-29T06:04:58.634Z,3.40
2017-11-29T06:07:26.082Z,3.40
2017-11-29T06:09:53.542Z,3.30
2017-11-29T06:12:20.988Z,3.20
2017-11-29T06:14:48.447Z,3.30
2017-11-29T06:17:15.887Z,3.30
2017-11-29T06:19:43.329Z,3.30
2017-11-29T06:22:11.548Z,3.20
2017-11-29T06:24:38.997Z,3.20
2017-11-29T06:27:06.449Z,3.20
2017-11-29T06:29:33.901Z,3.30
2017-11-29T06:32:01.359Z,3.20
2017-11-29T06:34:28.797Z,3.20
2017-11-29T06:36:56.299Z,3.20
2017-11-29T06:39:23.763Z,3.20
2017-11-29T06:41:51.212Z,3.20
2017-11-29T06:44:18.658Z,3.40
2017-11-29T06:46:46.114Z,3.40
2017-11-29T06:49:13.566Z,3.50
2017-11-29T06:51:41.031Z,3.60
2017-11-29T06:54:08.486Z,3.60
2017-11-29T06:56:36.382Z,3.50
2017-11-29T06:59:03.824Z,3.40
2017-11-29T07:01:31.391Z,3.40
2017-11-29T07:03:58.839Z,3.40
2017-11-29T07:06:26.295Z,3.40
2017-11-29T07:08:53.741Z,3.40
2017-11-29T07:11:21.187Z,3.60
2017-11-29T07:13:48.630Z,3.70
2017-11-29T07:16:16.148Z,3.80
2017-11-29T07:18:43.675Z,3.80
2017-11-29T07:21:11.133Z,3.80
2017-11-29T07:23:38.579Z,3.60
2017-11-29T07:26:06.035Z,3.60
2017-11-29T07:28:33.476Z,3.60
2017-11-29T07:31:00.931Z,3.60
2017-11-29T07:33:28.369Z,3.70
2017-11-29T07:35:56.582Z,3.70
2017-11-29T07:38:24.035Z,3.70
2017-11-29T07:40:51.507Z,3.70
2017-11-29T07:43:18.968Z,3.80
2017-11-29T07:45:46.408Z,3.80
2017-11-29T07:48:13.872Z,3.80
2017-11-29T07:50:41.343Z,3.90
2017-11-29T07:53:08.801Z,4.10
2017-11-29T07:55:36.242Z,4.20
2017-11-29T07:58:03.690Z,4.20
2017-11-29T08:00:31.135Z,4.10
2017-11-29T08:02:58.586Z,3.90
2017-11-29T08:05:26.035Z,3.80
2017-11-29T08:07:53.496Z,3.70
2017-11-29T08:10:20.939Z,3.60
2017-11-29T08:12:48.402Z,3.60
2017-11-29T08:15:15.855Z,3.60
2017-11-29T08:17:43.307Z,3.60
2017-11-29T08:20:11.515Z,3.80
2017-11-29T08:22:38.987Z,3.80
2017-11-29T08:25:06.430Z,4.10
2017-11-29T08:27:33.894Z,4.30
2017-11-29T08:30:01.330Z,4.30
2017-11-29T08:32:28.795Z,4.40
2017-11-29T08:34:56.223Z,4.40
2017-11-29T08:37:23.682Z,4.40
2017-11-29T08:39:51.882Z,4.50
2017-11-29T08:42:19.328Z,4.50
2017-11-29T08:44:46.784Z,4.50
2017-11-29T08:47:14.230Z,4.60
2017-11-29T08:49:41.726Z,4.60
2017-11-29T08:52:09.167Z,4.70
2017-11-29T08:54:36.622Z,4.90
2017-11-29T08:57:04.098Z,4.80
2017-11-29T08:59:31.557Z,4.80
2017-11-29T09:01:58.965Z,5.00
2017-11-29T09:04:26.459Z,4.80
2017-11-29T09:06:53.896Z,4.60
2017-11-29T09:09:21.387Z,4.70
2017-11-29T09:11:48.935Z,5.00
2017-11-29T09:14:16.390Z,4.90
2017-11-29T09:16:43.846Z,5.00
2017-11-29T09:19:11.287Z,4.90
2017-11-29T09:21:38.740Z,4.90
2017-11-29T09:24:06.199Z,4.90
2017-11-29T09:26:33.647Z,4.80
2017-11-29T09:29:01.100Z,4.70
2017-11-29T09:31:28.543Z,4.70
2017-11-29T09:33:56.050Z,4.80
2017-11-29T09:36:23.505Z,5.00
2017-11-29T09:38:50.963Z,5.00
2017-11-29T09:41:18.407Z,5.00
2017-11-29T09:43:45.873Z,4.90
2017-11-29T09:46:13.331Z,4.80
2017-11-29T09:48:40.779Z,4.70
2017-11-29T09:51:08.219Z,4.60
2017-11-29T09:53:35.674Z,4.50
2017-11-29T09:56:03.128Z,4.60
2017-11-29T09:58:30.578Z,4.50
2017-11-29T10:00:58.148Z,4.60
2017-11-29T10:03:25.580Z,4.80
2017-11-29T10:05:53.795Z,4.70
2017-11-29T10:08:21.270Z,4.70
2017-11-29T10:10:48.718Z,4.70
2017-11-29T10:13:16.190Z,4.60
2017-11-29T10:15:43.647Z,4.70
2017-11-29T10:18:11.091Z,4.70
2017-11-29T10:20:38.552Z,4.60
2017-11-29T10:23:06.017Z,4.50
2017-11-29T10:25:33.463Z,4.60
2017-11-29T10:28:00.907Z,4.60
2017-11-29T10:30:28.362Z,4.60
2017-11-29T10:32:55.830Z,4.60
2017-11-29T10:35:23.286Z,4.60
2017-11-29T10:37:50.746Z,4.60
2017-11-29T10:40:18.199Z,4.70
2017-11-29T10:42:45.652Z,4.80
2017-11-29T10:45:13.100Z,4.80
2017-11-29T10:47:40.557Z,5.00
2017-11-29T10:50:07.998Z,5.00
2017-11-29T10:52:35.439Z,5.00
2017-11-29T10:55:02.891Z,4.90
2017-11-29T10:57:30.334Z,4.90
2017-11-29T10:59:58.558Z,4.90
2017-11-29T11:02:26.032Z,4.90
2017-11-29T11:04:53.475Z,5.00
2017-11-29T11:07:20.950Z,4.90
2017-11-29T11:09:48.390Z,4.90
2017-11-29T11:12:15.848Z,5.00
2017-11-29T11:14:43.291Z,5.00
2017-11-29T11:17:10.760Z,5.00
2017-11-29T11:19:38.198Z,5.10
2017-11-29T11:22:05.661Z,5.10
2017-11-29T11:24:33.104Z,5.10
2017-11-29T11:27:00.555Z,5.10
2017-11-29T11:29:28.022Z,5.20
2017-11-29T11:31:56.222Z,5.10
2017-11-29T11:34:23.654Z,5.10
2017-11-29T11:36:51.113Z,5.10
2017-11-29T11:39:18.607Z,5.00
2017-11-29T11:41:47.566Z,5.00
2017-11-29T11:44:15.018Z,5.00
2017-11-29T11:46:42.471Z,5.00
2017-11-29T11:49:09.915Z,5.20
2017-11-29T11:51:37.376Z,5.30
2017-11-29T11:54:04.817Z,5.40
2017-11-29T11:56:33.038Z,5.30
2017-11-29T11:59:00.472Z,5.30
2017-11-29T12:01:27.932Z,5.30
2017-11-29T12:03:55.424Z,5.20
2017-11-29T12:06:22.902Z,5.30
2017-11-29T12:08:51.089Z,5.10
2017-11-29T12:11:18.575Z,5.10
2017-11-29T12:13:46.018Z,5.20
2017-11-29T12:16:13.478Z,5.20
2017-11-29T12:18:40.935Z,5.10
2017-11-29T12:21:08.444Z,5.10
2017-11-29T12:23:35.889Z,5.10
2017-11-29T12:26:03.330Z,5.10
2017-11-29T12:28:30.795Z,5.00
2017-11-29T12:30:58.234Z,4.80
2017-11-29T12:33:25.685Z,4.80
2017-11-29T12:35:53.138Z,5.00
2017-11-29T12:38:20.634Z,4.80
2017-11-29T12:40:48.071Z,4.70
2017-11-29T12:43:15.526Z,4.60
2017-11-29T12:45:42.977Z,4.60
2017-11-29T12:48:22.323Z,4.50
2017-11-29T12:51:01.738Z,4.30
2017-11-29T12:53:29.196Z,4.30
2017-11-29T12:55:56.636Z,4.20
2017-11-29T12:58:24.095Z,4.20
2017-11-29T13:00:51.534Z,4.20
2017-11-29T13:03:19.771Z,4.30
2017-11-29T13:05:47.219Z,4.30
2017-11-29T13:08:14.678Z,4.30
2017-11-29T13:10:42.119Z,4.40
2017-11-29T13:13:09.569Z,4.50
2017-11-29T13:15:37.036Z,4.50
2017-11-29T13:18:04.487Z,4.60
2017-11-29T13:20:31.940Z,4.60
2017-11-29T13:22:59.401Z,4.60
2017-11-29T13:25:26.860Z,4.60
2017-11-29T13:27:54.313Z,4.50
2017-11-29T13:30:21.770Z,4.50
2017-11-29T13:32:49.259Z,4.60
2017-11-29T13:35:16.702Z,4.60
2017-11-29T13:37:44.154Z,4.60
2017-11-29T13:40:11.606Z,4.70
2017-11-29T13:42:39.083Z,4.70
2017-11-29T13:45:06.530Z,4.60
2017-11-29T13:47:33.977Z,4.70
2017-11-29T13:50:01.439Z,4.70
2017-11-29T13:52:28.909Z,4.60
2017-11-29T13:54:56.366Z,4.70
2017-11-29T13:57:23.815Z,4.90
2017-11-29T13:59:51.263Z,4.90
2017-11-29T14:02:18.746Z,4.80
2017-11-29T14:04:46.195Z,4.90
2017-11-29T14:07:13.643Z,5.10
2017-11-29T14:09:41.094Z,5.00
2017-11-29T14:12:08.563Z,4.90
2017-11-29T14:14:36.028Z,4.90
2017-11-29T14:17:03.479Z,4.90
2017-11-29T14:19:30.939Z,5.00
2017-11-29T14:21:58.394Z,5.00
2017-11-29T14:24:25.856Z,5.10
2017-11-29T14:26:53.318Z,5.10
2017-11-29T14:29:20.767Z,5.20
2017-11-29T14:31:48.318Z,5.10
2017-11-29T14:34:15.771Z,4.90
2017-11-29T14:36:43.218Z,4.80
2017-11-29T14:39:10.674Z,4.80
2017-11-29T14:41:38.121Z,4.60
2017-11-29T14:44:05.607Z,4.40
2017-11-29T14:46:33.050Z,4.40
2017-11-29T14:49:00.523Z,4.20
2017-11-29T14:51:27.976Z,4.00
2017-11-29T14:53:55.417Z,3.90
2017-11-29T14:56:22.891Z,3.80
2017-11-29T14:58:50.322Z,3.80
2017-11-29T15:01:17.787Z,3.60
2017-11-29T15:03:45.239Z,3.70
2017-11-29T15:06:12.695Z,3.60
2017-11-29T15:08:40.139Z,3.50
2017-11-29T15:11:07.594Z,3.40
2017-11-29T15:13:35.040Z,3.20
2017-11-29T15:16:02.502Z,3.00
2017-11-29T15:18:29.950Z,3.00
2017-11-29T15:20:57.399Z,2.90
2017-11-29T15:23:25.613Z,2.70
2017-11-29T15:25:53.084Z,2.70
2017-11-29T15:28:20.529Z,2.60
2017-11-29T15:30:47.980Z,2.50
2017-11-29T15:33:15.427Z,2.40
2017-11-29T15:35:42.884Z,2.50
2017-11-29T15:38:10.332Z,2.50
2017-11-29T15:40:37.787Z,2.50
2017-11-29T15:43:05.352Z,2.40
2017-11-29T15:45:32.811Z,2.60
2017-11-29T15:48:00.259Z,2.60
2017-11-29T15:50:27.755Z,2.60
2017-11-29T15:52:55.215Z,2.50
2017-11-29T15:55:22.669Z,2.50
2017-11-29T15:57:50.132Z,2.50
2017-11-29T16:00:17.591Z,2.50
2017-11-29T16:02:45.044Z,2.40
2017-11-29T16:05:12.505Z,2.50
2017-11-29T16:07:39.976Z,2.60
2017-11-29T16:10:07.417Z,2.60
2017-11-29T16:12:34.880Z,2.60
2017-11-29T16:15:02.319Z,2.50
2017-11-29T16:17:29.771Z,2.40
2017-11-29T16:19:57.222Z,2.40
2017-11-29T16:22:24.680Z,2.40
2017-11-29T16:24:52.130Z,2.40
2017-11-29T16:27:19.592Z,2.60
2017-11-29T16:29:47.035Z,2.60
2017-11-29T16:32:14.506Z,2.60
2017-11-29T16:34:41.948Z,2.50
2017-11-29T16:37:09.407Z,2.40
2017-11-29T16:39:36.860Z,2.30
2017-11-29T16:42:04.319Z,2.20
2017-11-29T16:44:31.764Z,2.10
2017-11-29T16:46:59.221Z,2.00
2017-11-29T16:49:26.678Z,1.90
2017-11-29T16:51:54.133Z,1.90
2017-11-29T16:54:21.587Z,1.80
2017-11-29T16:56:49.039Z,1.70
2017-11-29T16:59:16.511Z,1.70
2017-11-29T17:01:44.009Z,1.70
2017-11-29T17:04:11.451Z,1.60
2017-11-29T17:06:38.902Z,1.50
2017-11-29T17:09:06.354Z,1.40
2017-11-29T17:11:33.811Z,1.40
2017-11-29T17:14:01.269Z,1.40
2017-11-29T17:16:28.716Z,1.40
2017-11-29T17:18:56.174Z,1.40
2017-11-29T17:21:23.622Z,1.30
2017-11-29T17:23:51.083Z,1.30
2017-11-29T17:26:18.535Z,1.30
2017-11-29T17:28:45.996Z,1.20
2017-11-29T17:31:13.449Z,1.10
2017-11-29T17:33:40.906Z,1.10
2017-11-29T17:36:08.362Z,1.10
2017-11-29T17:38:35.824Z,1.00
2017-11-29T17:41:03.275Z,1.00
2017-11-29T17:43:30.734Z,0.90
2017-11-29T17:45:58.290Z,1.00
2017-11-29T17:48:25.746Z,1.10
2017-11-29T17:50:53.207Z,1.20
2017-11-29T17:53:20.669Z,1.20
2017-11-29T17:55:48.119Z,1.20
2017-11-29T17:58:15.576Z,1.20
2017-11-29T18:00:43.019Z,1.30
2017-11-29T18:03:10.480Z,1.30
2017-11-29T18:05:37.932Z,1.40
2017-11-29T18:08:05.394Z,1.50
2017-11-29T18:10:32.847Z,1.50
2017-11-29T18:13:00.343Z,1.50
2017-11-29T18:15:27.794Z,1.60
2017-11-29T18:17:55.255Z,1.70
2017-11-29T18:20:22.715Z,1.60
2017-11-29T18:22:50.273Z,1.50
2017-11-29T18:25:17.726Z,1.40
2017-11-29T18:27:45.199Z,1.30
2017-11-29T18:30:12.651Z,1.20
2017-11-29T18:32:40.868Z,1.10
2017-11-29T18:35:09.100Z,1.00
2017-11-29T18:37:36.568Z,1.00
2017-11-29T18:40:04.024Z,0.90
2017-11-29T18:42:31.474Z,0.70
2017-11-29T18:44:59.749Z,0.70
2017-11-29T18:47:27.202Z,0.60
2017-11-29T18:49:54.667Z,0.50
2017-11-29T18:52:22.934Z,0.40
2017-11-29T18:54:50.390Z,0.30
2017-11-29T18:57:17.840Z,0.40
2017-11-29T18:59:45.307Z,0.30
2017-11-29T19:02:12.845Z,0.30
2017-11-29T19:04:40.299Z,0.20
2017-11-29T19:07:07.756Z,0.20
2017-11-29T19:09:35.219Z,0.20
2017-11-29T19:12:02.670Z,0.20
2017-11-29T19:14:30.132Z,0.20
2017-11-29T19:16:57.586Z,0.20
2017-11-29T19:19:25.160Z,0.30
2017-11-29T19:21:52.724Z,0.30
2017-11-29T19:24:20.180Z,0.30
2017-11-29T19:26:47.742Z,0.10
2017-11-29T19:29:15.199Z,0.00
2017-11-29T19:31:42.659Z,-0.10
2017-11-29T19:34:10.124Z,-0.20
2017-11-29T19:36:37.583Z,-0.30
2017-11-29T19:39:05.127Z,-0.30
2017-11-29T19:41:32.588Z,-0.30
2017-11-29T19:44:00.047Z,-0.30
2017-11-29T19:46:27.513Z,-0.40
2017-11-29T19:48:54.967Z,-0.30
2017-11-29T19:51:22.425Z,-0.20
2017-11-29T19:53:50.646Z,-0.20
2017-11-29T19:56:18.109Z,-0.20
2017-11-29T19:58:45.603Z,-0.20
2017-11-29T20:01:13.060Z,-0.20
2017-11-29T20:03:40.521Z,-0.20
2017-11-29T20:06:07.975Z,-0.20
2017-11-29T20:08:35.430Z,-0.40
2017-11-29T20:11:03.666Z,-0.30
2017-11-29T20:13:31.164Z,-0.30
2017-11-29T20:15:59.395Z,-0.30
2017-11-29T20:18:26.889Z,-0.30
2017-11-29T20:20:54.343Z,-0.30
2017-11-29T20:23:21.796Z,-0.30
2017-11-29T20:25:49.268Z,-0.40
2017-11-29T20:28:16.721Z,-0.40
2017-11-29T20:30:44.187Z,-0.50
2017-11-29T20:33:11.650Z,-0.40
2017-11-29T20:35:39.895Z,-0.50
2017-11-29T20:38:07.357Z,-0.50
2017-11-29T20:40:34.819Z,-0.60
2017-11-29T20:43:02.270Z,-0.70
2017-11-29T20:45:29.839Z,-0.60
2017-11-29T20:47:57.287Z,-0.60
2017-11-29T20:50:24.770Z,-0.60
2017-11-29T20:52:54.902Z,-0.70
2017-11-29T20:55:23.137Z,-0.70
2017-11-29T20:57:50.686Z,-0.70
2017-11-29T21:00:18.258Z,-0.70
2017-11-29T21:02:45.721Z,-0.80
2017-11-29T21:05:13.166Z,-0.80
2017-11-29T21:07:40.630Z,-0.90
2017-11-29T21:10:08.084Z,-0.90
2017-11-29T21:12:35.546Z,-0.90
2017-11-29T21:15:03.000Z,-0.90
2017-11-29T21:17:30.467Z,-0.90
2017-11-29T21:19:58.012Z,-0.90
2017-11-29T21:22:25.475Z,-1.00
2017-11-29T21:24:52.931Z,-0.90
2017-11-29T21:27:20.390Z,-0.80
2017-11-29T21:29:47.847Z,-0.90
2017-11-29T21:32:15.312Z,-0.80
2017-11-29T21:34:42.897Z,-0.80
2017-11-29T21:37:11.229Z,-0.80
2017-11-29T21:39:38.682Z,-0.90
2017-11-29T21:42:06.147Z,-0.90
2017-11-29T21:44:33.599Z,-0.90
2017-11-29T21:47:01.058Z,-0.90
2017-11-29T21:49:28.514Z,-0.80
2017-11-29T21:51:56.068Z,-1.00
2017-11-29T21:54:23.526Z,-0.80
2017-11-29T21:56:50.991Z,-0.80
2017-11-29T22:02:37.834Z,-1.00
2017-11-29T22:05:06.059Z,-1.10
2017-11-29T22:07:33.523Z,-1.10
2017-11-29T22:10:00.971Z,-1.10
2017-11-29T22:12:29.806Z,-1.20
2017-11-29T22:14:57.264Z,-1.30
2017-11-29T22:17:24.730Z,-1.30
2017-11-29T22:19:52.183Z,-1.40
2017-11-29T22:22:19.646Z,-1.40
2017-11-29T22:24:47.870Z,-1.40
2017-11-29T22:27:15.732Z,-1.40
2017-11-29T22:29:43.175Z,-1.40
2017-11-29T22:32:10.626Z,-1.40
2017-11-29T22:34:38.131Z,-1.40
2017-11-29T22:37:05.581Z,-1.40
2017-11-29T22:39:33.054Z,-1.40
2017-11-29T22:42:00.490Z,-1.50
2017-11-29T22:44:27.954Z,-1.30
2017-11-29T22:46:55.410Z,-1.20
2017-11-29T22:49:22.871Z,-1.30
2017-11-29T22:51:50.322Z,-1.30
2017-11-29T22:54:17.789Z,-1.20
2017-11-29T22:56:45.249Z,-1.10
2017-11-29T22:59:12.711Z,-1.00
2017-11-29T23:01:40.163Z,-1.00
2017-11-29T23:04:07.714Z,-0.90
2017-11-29T23:06:35.174Z,-0.90
2017-11-29T23:09:02.635Z,-0.90
2017-11-29T23:11:30.091Z,-1.00
2017-11-29T23:13:57.556Z,-1.00
2017-11-29T23:16:25.009Z,-1.00
2017-11-29T23:18:52.501Z,-1.00
2017-11-29T23:21:19.922Z,-1.00
2017-11-29T23:23:47.386Z,-0.70
2017-11-29T23:26:14.842Z,-0.60
2017-11-29T23:28:42.306Z,-0.60
2017-11-29T23:31:10.526Z,-0.40
2017-11-29T23:33:37.987Z,-0.40
2017-11-29T23:36:05.450Z,-0.40
2017-11-29T23:38:32.902Z,-0.40
2017-11-29T23:41:00.359Z,-0.40
2017-11-29T23:43:27.843Z,-0.40
2017-11-29T23:45:55.647Z,-0.30
2017-11-29T23:48:23.859Z,-0.30
2017-11-29T23:50:51.338Z,-0.30
2017-11-29T23:53:18.900Z,-0.10
2017-11-29T23:55:46.356Z,0.00
2017-11-29T23:58:13.798Z,0.10
